Bookmark and Share
Track history (hours):
 

Hayase Maru

Last reported at 2014-Apr-16 12:32 UTC. Time now 2014-Apr-17 12:37 UTC.
Position N 34°10' E 134°59'.

Length 73 m; draft 4.1 m.

Type: Ship. MMSI: 431000395.

NotesDate/timePositionNaut miles runAvg speedWind from/ knotsBaromVisibWave heightAir tempDewpointWater temp
2014-Apr-16 12:32N 34°10' E 134°59'10 8.9
2014-Apr-16 11:24N 34°20' E 134°60'8 9.9
2014-Apr-16 10:33N 34°26' E 135°06'1111.3
2014-Apr-16 09:33N 34°33' E 135°17'8 0.9
2014-Apr-16 00:18N 34°35' E 135°27'0 0.0
2014-Apr-15 22:13N 34°35' E 135°27'1 1.9
2014-Apr-15 21:32N 34°35' E 135°25'0 0.0
2014-Apr-15 20:33N 34°35' E 135°25'0 0.0
2014-Apr-15 19:33N 34°35' E 135°25'0 0.0
2014-Apr-15 18:33N 34°35' E 135°25'0 0.1
2014-Apr-15 17:33N 34°35' E 135°25'0 0.0
2014-Apr-15 16:33N 34°35' E 135°25'0 0.0
2014-Apr-15 15:33N 34°35' E 135°25'0 0.0
2014-Apr-15 14:33N 34°35' E 135°25'0 0.0
2014-Apr-15 12:34N 34°35' E 135°25'0 0.0
2014-Apr-15 11:34N 34°35' E 135°25'0 0.0
2014-Apr-15 10:33N 34°35' E 135°25'0 0.0
2014-Apr-15 09:34N 34°35' E 135°25'0 0.0
2014-Apr-15 08:34N 34°35' E 135°25'0 0.1
2014-Apr-15 07:34N 34°35' E 135°25'2 2.2
2014-Apr-15 06:34N 34°36' E 135°23'4 4.2
2014-Apr-15 05:31N 34°39' E 135°28'0 0.0
2014-Apr-15 03:34N 34°39' E 135°28'0 0.0
2014-Apr-15 02:34N 34°39' E 135°28'0 0.0
2014-Apr-15 01:33N 34°39' E 135°28'0 0.0
2014-Apr-15 00:34N 34°39' E 135°28'0 0.0
2014-Apr-14 23:34N 34°39' E 135°28'0 0.0
2014-Apr-14 22:33N 34°39' E 135°28'0 0.0
2014-Apr-14 21:33N 34°39' E 135°28'0 0.0
2014-Apr-14 20:33N 34°39' E 135°28'0 0.0
2014-Apr-14 19:33N 34°39' E 135°28'0 0.0
2014-Apr-14 18:33N 34°39' E 135°28'0 0.0
2014-Apr-14 17:33N 34°39' E 135°28'0 0.0
2014-Apr-14 16:33N 34°39' E 135°28'0 0.0
2014-Apr-14 15:33N 34°39' E 135°28'0 0.0
2014-Apr-14 14:33N 34°39' E 135°28'0 0.0
2014-Apr-14 13:33N 34°39' E 135°28'0 0.0
2014-Apr-14 11:33N 34°39' E 135°28'0 0.0
2014-Apr-14 10:33N 34°39' E 135°28'0 0.0
2014-Apr-14 09:33N 34°39' E 135°28'0 0.0
2014-Apr-14 08:33N 34°39' E 135°28'0 0.0
2014-Apr-14 07:33N 34°39' E 135°28'0 0.0
2014-Apr-14 06:33N 34°39' E 135°28'0 0.3
2014-Apr-14 05:33N 34°39' E 135°27'180 5.8
2014-Apr-12 22:29N 34°41' E 139°06'2411.1
2014-Apr-12 20:20N 34°50' E 139°33'911.5
2014-Apr-12 19:33N 34°51' E 139°44'1110.5
2014-Apr-12 18:32N 34°52' E 139°57'1111.0
2014-Apr-12 17:33N 34°58' E 140°07'2210.6
2014-Apr-12 15:32N 35°12' E 140°28'1010.2
2014-Apr-12 14:33N 35°20' E 140°35'1010.5
2014-Apr-12 13:33N 35°28' E 140°43'1010.1
2014-Apr-12 12:33N 35°36' E 140°50'  

Dump ship's entire track history

sailing weather and tide predictions

Hayase Maru — JD2583 — position and weather